Time;durP1;ratioP1;P1;durP2;ratioP2;P2;SDS_P1;SDS_P2;PMS_P1;PMS_P2;Temp;Humidity;BMP_temperature;BMP_pressure;BME280_temperature;BME280_humidity;BME280_pressure;Samples;Min_cycle;Max_cycle;Signal;HPM_P1;HPM_P2
2023/07/04 00:01:15;;;;;;;8.57;2.45;;;;;;;;;;5075042;28;20291;-72
2023/07/04 00:03:42;;;;;;;6.20;1.83;;;;;;;;;;5069807;28;20189;-72
2023/07/04 00:06:12;;;;;;;5.07;2.20;;;;;;;;;;5074529;28;20188;-71
2023/07/04 00:08:38;;;;;;;8.48;2.22;;;;;;;;;;5078139;28;20229;-71
2023/07/04 00:11:04;;;;;;;4.68;1.80;;;;;;;;;;5085706;28;20196;-71
2023/07/04 00:13:31;;;;;;;7.45;2.10;;;;;;;;;;5087241;28;20180;-72
2023/07/04 00:15:57;;;;;;;7.43;2.30;;;;;;;;;;5076661;28;20212;-73
2023/07/04 00:18:25;;;;;;;10.02;2.05;;;;;;;;;;5072091;28;20189;-71
2023/07/04 00:20:56;;;;;;;7.15;2.15;;;;;;;;;;5078061;28;20264;-69
2023/07/04 00:23:22;;;;;;;7.70;2.20;;;;;;;;;;5081783;28;20244;-71
2023/07/04 00:25:48;;;;;;;5.75;2.40;;;;;;;;;;5084430;28;20188;-72
2023/07/04 00:28:13;;;;;;;8.90;1.90;;;;;;;;;;5072245;28;20186;-71
2023/07/04 00:30:39;;;;;;;6.65;2.10;;;;;;;;;;5077959;28;20625;-71
2023/07/04 00:33:04;;;;;;;7.50;2.55;;;;;;;;;;5086005;28;20425;-72
2023/07/04 00:35:29;;;;;;;10.57;1.77;;;;;;;;;;5082012;28;20733;-72
2023/07/04 00:37:56;;;;;;;5.90;2.13;;;;;;;;;;5075583;28;20271;-72
2023/07/04 00:40:22;;;;;;;5.57;1.77;;;;;;;;;;5079820;28;20218;-72
2023/07/04 00:42:49;;;;;;;6.40;2.00;;;;;;;;;;5081392;28;20228;-70
2023/07/04 00:45:21;;;;;;;8.13;2.28;;;;;;;;;;5083798;28;20560;-72
2023/07/04 00:48:00;;;;;;;9.27;2.28;;;;;;;;;;5089707;28;20592;-72
2023/07/04 00:50:33;;;;;;;7.85;2.15;;;;;;;;;;5074477;28;20593;-69
2023/07/04 00:53:04;;;;;;;10.43;2.90;;;;;;;;;;5085853;28;20208;-71
2023/07/04 00:55:31;;;;;;;6.40;2.10;;;;;;;;;;5083562;28;20206;-69
2023/07/04 00:57:57;;;;;;;8.35;2.03;;;;;;;;;;5088714;28;20184;-71
2023/07/04 01:00:23;;;;;;;7.13;2.53;;;;;;;;;;5086085;28;20282;-71
2023/07/04 01:03:04;;;;;;;5.38;1.98;;;;;;;;;;5081276;28;20216;-70
2023/07/04 01:05:55;;;;;;;7.05;2.58;;;;;;;;;;5080738;28;20277;-71
2023/07/04 01:08:33;;;;;;;8.02;2.25;;;;;;;;;;5086045;28;20220;-71
2023/07/04 01:11:03;;;;;;;7.82;2.80;;;;;;;;;;5088193;28;20234;-70
2023/07/04 01:13:43;;;;;;;9.63;2.60;;;;;;;;;;5083743;28;20173;-68
2023/07/04 01:16:12;;;;;;;8.25;2.35;;;;;;;;;;5080261;28;20191;-71
2023/07/04 01:18:41;;;;;;;8.05;3.10;;;;;;;;;;5078439;28;20250;-71
2023/07/04 01:21:09;;;;;;;8.20;2.78;;;;;;;;;;5086044;28;20259;-72
2023/07/04 01:23:58;;;;;;;8.23;2.65;;;;;;;;;;5088091;28;20561;-71
2023/07/04 01:26:38;;;;;;;7.65;2.70;;;;;;;;;;5075006;28;20203;-68
2023/07/04 01:29:06;;;;;;;7.50;2.78;;;;;;;;;;5083572;28;20188;-71
2023/07/04 01:31:35;;;;;;;16.92;3.22;;;;;;;;;;5075718;28;20212;-72
2023/07/04 01:34:02;;;;;;;8.30;3.05;;;;;;;;;;5070184;28;20177;-71
2023/07/04 01:36:30;;;;;;;8.52;2.78;;;;;;;;;;5081620;28;20184;-71
2023/07/04 01:38:56;;;;;;;10.38;3.38;;;;;;;;;;5088549;28;20180;-72
2023/07/04 01:41:24;;;;;;;10.15;3.40;;;;;;;;;;5077400;28;20299;-69
2023/07/04 01:43:56;;;;;;;8.95;3.20;;;;;;;;;;5075070;28;20188;-71
2023/07/04 01:46:22;;;;;;;10.43;2.95;;;;;;;;;;5090229;28;20675;-71
2023/07/04 01:48:47;;;;;;;9.55;3.13;;;;;;;;;;5089947;28;20188;-72
2023/07/04 01:51:13;;;;;;;15.35;3.70;;;;;;;;;;5083505;28;20592;-71
2023/07/04 01:53:39;;;;;;;15.02;4.30;;;;;;;;;;5087085;28;20180;-72
2023/07/04 01:56:04;;;;;;;9.40;3.22;;;;;;;;;;5083231;28;20195;-72
2023/07/04 01:58:30;;;;;;;11.45;3.53;;;;;;;;;;5084292;28;20245;-71
2023/07/04 02:00:55;;;;;;;11.73;2.97;;;;;;;;;;5084130;28;20705;-71
2023/07/04 02:03:20;;;;;;;8.18;3.13;;;;;;;;;;5083358;28;20192;-69
2023/07/04 02:05:46;;;;;;;9.88;3.00;;;;;;;;;;5081959;28;20593;-71
2023/07/04 02:08:11;;;;;;;8.48;2.75;;;;;;;;;;5077035;28;20211;-72
2023/07/04 02:10:37;;;;;;;9.68;3.40;;;;;;;;;;5087174;28;20211;-69
2023/07/04 02:13:02;;;;;;;9.52;3.45;;;;;;;;;;5086064;28;20180;-70
2023/07/04 02:15:27;;;;;;;11.90;3.67;;;;;;;;;;5087116;28;20378;-71
2023/07/04 02:17:53;;;;;;;6.95;3.03;;;;;;;;;;5080385;28;20272;-70
2023/07/04 02:20:19;;;;;;;12.43;3.22;;;;;;;;;;5088220;28;20195;-72
2023/07/04 02:22:45;;;;;;;10.05;3.55;;;;;;;;;;5083549;28;20393;-69
2023/07/04 02:25:10;;;;;;;14.35;3.63;;;;;;;;;;5073292;28;20254;-72
2023/07/04 02:27:36;;;;;;;14.23;3.20;;;;;;;;;;5080175;28;20237;-70
2023/07/04 02:30:05;;;;;;;8.98;2.90;;;;;;;;;;5078337;28;20196;-71
2023/07/04 02:32:30;;;;;;;11.02;3.00;;;;;;;;;;5080346;28;20188;-70
2023/07/04 02:34:56;;;;;;;11.10;3.83;;;;;;;;;;5084413;28;20253;-68
2023/07/04 02:37:21;;;;;;;8.13;3.05;;;;;;;;;;5079320;28;20270;-71
2023/07/04 02:39:46;;;;;;;14.80;3.22;;;;;;;;;;5078287;28;20181;-71
2023/07/04 02:42:12;;;;;;;8.25;3.00;;;;;;;;;;5084818;28;20287;-71
2023/07/04 02:44:37;;;;;;;7.95;3.13;;;;;;;;;;5080256;28;20234;-70
2023/07/04 02:47:03;;;;;;;11.80;3.17;;;;;;;;;;5078100;28;20636;-71
2023/07/04 02:49:29;;;;;;;7.18;3.13;;;;;;;;;;5081523;28;20226;-69
2023/07/04 02:51:54;;;;;;;8.98;3.47;;;;;;;;;;5086285;28;20228;-71
2023/07/04 02:54:20;;;;;;;11.07;3.60;;;;;;;;;;5085294;28;20188;-72
2023/07/04 02:56:45;;;;;;;14.70;3.33;;;;;;;;;;5089207;28;20218;-72
2023/07/04 02:59:11;;;;;;;12.50;3.67;;;;;;;;;;5074259;28;20184;-71
2023/07/04 03:01:36;;;;;;;10.50;3.35;;;;;;;;;;5076328;28;20546;-69
2023/07/04 03:04:02;;;;;;;12.90;2.65;;;;;;;;;;5086335;28;20205;-71
2023/07/04 03:06:27;;;;;;;8.82;3.15;;;;;;;;;;5078225;28;20671;-73
2023/07/04 03:08:54;;;;;;;10.07;3.40;;;;;;;;;;5085953;28;20198;-73
2023/07/04 03:11:19;;;;;;;9.07;2.45;;;;;;;;;;5085529;28;20204;-69
2023/07/04 03:13:44;;;;;;;9.52;2.83;;;;;;;;;;5078178;28;20671;-72
2023/07/04 03:16:10;;;;;;;11.23;3.13;;;;;;;;;;5085378;28;20204;-71
2023/07/04 03:18:35;;;;;;;8.57;2.55;;;;;;;;;;5069063;28;20188;-71
2023/07/04 03:21:01;;;;;;;9.85;2.95;;;;;;;;;;5088424;28;20184;-72
2023/07/04 03:23:26;;;;;;;8.90;3.05;;;;;;;;;;5082262;28;20193;-72
2023/07/04 03:25:52;;;;;;;10.77;2.75;;;;;;;;;;5082302;28;20546;-72
2023/07/04 03:28:17;;;;;;;8.55;2.60;;;;;;;;;;5082838;28;20189;-73
2023/07/04 03:30:42;;;;;;;11.13;3.33;;;;;;;;;;5081798;28;20208;-72
2023/07/04 03:33:08;;;;;;;7.93;3.13;;;;;;;;;;5075855;28;20202;-72
2023/07/04 03:35:38;;;;;;;7.40;2.35;;;;;;;;;;5079468;28;20184;-72
2023/07/04 03:38:03;;;;;;;8.45;2.70;;;;;;;;;;5078340;28;20215;-72
2023/07/04 03:40:29;;;;;;;7.95;2.97;;;;;;;;;;5076743;28;20741;-72
2023/07/04 03:42:54;;;;;;;10.18;3.30;;;;;;;;;;5074777;28;20210;-73
2023/07/04 03:45:19;;;;;;;5.35;2.60;;;;;;;;;;5077771;28;20192;-71
2023/07/04 03:47:45;;;;;;;13.10;3.55;;;;;;;;;;5079438;28;20184;-73
2023/07/04 03:50:13;;;;;;;10.65;3.08;;;;;;;;;;5084020;28;20199;-73
2023/07/04 03:52:38;;;;;;;7.88;3.30;;;;;;;;;;5069387;28;20699;-74
2023/07/04 03:55:05;;;;;;;13.95;3.72;;;;;;;;;;5083100;28;20649;-73
2023/07/04 03:57:30;;;;;;;11.05;3.17;;;;;;;;;;5080190;28;20219;-73
2023/07/04 03:59:56;;;;;;;10.25;3.40;;;;;;;;;;5086752;28;20222;-73
2023/07/04 04:02:21;;;;;;;11.00;3.53;;;;;;;;;;5079491;28;20196;-73
2023/07/04 04:04:47;;;;;;;8.35;3.00;;;;;;;;;;5085778;28;20206;-72
2023/07/04 04:07:12;;;;;;;7.93;2.97;;;;;;;;;;5073312;28;20189;-72
2023/07/04 04:09:38;;;;;;;11.10;3.40;;;;;;;;;;5086398;28;20279;-72
2023/07/04 04:12:05;;;;;;;10.95;3.53;;;;;;;;;;5086335;28;20204;-72
2023/07/04 04:14:31;;;;;;;11.85;3.20;;;;;;;;;;5068158;28;20495;-73
2023/07/04 04:16:57;;;;;;;11.73;3.63;;;;;;;;;;5074224;28;20268;-73
2023/07/04 04:19:24;;;;;;;10.15;2.80;;;;;;;;;;5069687;28;20260;-72
2023/07/04 04:21:49;;;;;;;7.50;3.05;;;;;;;;;;5077174;28;20195;-72
2023/07/04 04:24:14;;;;;;;13.38;3.20;;;;;;;;;;5077324;28;20571;-72
2023/07/04 04:26:40;;;;;;;9.55;3.38;;;;;;;;;;5076504;28;20180;-70
2023/07/04 04:29:07;;;;;;;10.73;3.00;;;;;;;;;;5074279;28;20242;-72
2023/07/04 04:31:38;;;;;;;8.82;2.92;;;;;;;;;;5079849;28;20283;-71
2023/07/04 04:34:04;;;;;;;12.55;3.30;;;;;;;;;;5085329;28;20184;-73
2023/07/04 04:36:30;;;;;;;9.00;3.03;;;;;;;;;;5080870;28;20677;-73
2023/07/04 04:38:56;;;;;;;12.68;3.40;;;;;;;;;;5078347;28;20188;-73
2023/07/04 04:41:22;;;;;;;12.13;3.25;;;;;;;;;;5076112;28;20255;-71
2023/07/04 04:43:49;;;;;;;12.10;3.30;;;;;;;;;;5082355;28;20670;-72
2023/07/04 04:46:16;;;;;;;10.27;2.83;;;;;;;;;;5076862;28;20733;-73
2023/07/04 04:48:41;;;;;;;9.43;3.10;;;;;;;;;;5083760;28;20180;-72
2023/07/04 04:51:10;;;;;;;8.90;2.90;;;;;;;;;;5068345;28;20239;-72
2023/07/04 04:53:36;;;;;;;10.10;2.97;;;;;;;;;;5081196;28;20210;-72
2023/07/04 04:56:03;;;;;;;8.80;2.97;;;;;;;;;;5080431;28;20198;-74
2023/07/04 04:58:28;;;;;;;10.80;3.33;;;;;;;;;;5081873;28;20223;-73
2023/07/04 05:00:54;;;;;;;13.70;3.22;;;;;;;;;;5073458;28;20242;-73
2023/07/04 05:03:19;;;;;;;12.38;3.75;;;;;;;;;;5078972;28;20584;-72
2023/07/04 05:05:44;;;;;;;9.02;2.85;;;;;;;;;;5071642;28;20208;-73
2023/07/04 05:08:10;;;;;;;10.52;3.13;;;;;;;;;;5071930;28;20640;-72
2023/07/04 05:10:35;;;;;;;8.38;2.80;;;;;;;;;;5078039;28;20232;-68
2023/07/04 05:13:01;;;;;;;8.98;2.65;;;;;;;;;;5079796;28;20219;-71
2023/07/04 05:15:26;;;;;;;13.20;3.42;;;;;;;;;;5077195;28;20195;-74
2023/07/04 05:17:51;;;;;;;11.75;3.28;;;;;;;;;;5065844;28;20195;-74
2023/07/04 05:20:23;;;;;;;11.50;2.97;;;;;;;;;;5074100;28;20600;-73
2023/07/04 05:22:56;;;;;;;10.68;2.80;;;;;;;;;;5077166;28;20575;-73
2023/07/04 05:25:22;;;;;;;10.88;2.90;;;;;;;;;;5072819;28;20185;-69
2023/07/04 05:27:50;;;;;;;8.63;2.50;;;;;;;;;;5076169;28;20192;-73
2023/07/04 05:30:15;;;;;;;13.25;2.92;;;;;;;;;;5069782;28;20279;-73
2023/07/04 05:32:40;;;;;;;9.43;2.67;;;;;;;;;;5073211;28;20267;-74
2023/07/04 05:35:06;;;;;;;6.65;2.22;;;;;;;;;;5088781;28;20632;-72
2023/07/04 05:37:32;;;;;;;8.80;2.67;;;;;;;;;;5078862;28;20263;-70
2023/07/04 05:39:58;;;;;;;10.45;2.75;;;;;;;;;;5083462;28;20191;-74
2023/07/04 05:42:25;;;;;;;10.60;3.00;;;;;;;;;;5086978;28;20220;-71
2023/07/04 05:44:50;;;;;;;6.53;2.60;;;;;;;;;;5085263;28;20299;-73
2023/07/04 05:47:16;;;;;;;13.48;2.78;;;;;;;;;;5080639;28;20680;-73
2023/07/04 05:49:41;;;;;;;7.20;2.47;;;;;;;;;;5080319;28;20192;-74
2023/07/04 05:52:07;;;;;;;9.00;2.47;;;;;;;;;;5084309;28;20204;-72
2023/07/04 05:54:32;;;;;;;10.13;2.20;;;;;;;;;;5084107;28;20267;-72
2023/07/04 05:56:57;;;;;;;7.25;2.35;;;;;;;;;;5078743;28;20218;-73
2023/07/04 05:59:23;;;;;;;6.35;2.40;;;;;;;;;;5077397;28;20199;-71
2023/07/04 06:01:50;;;;;;;7.35;2.60;;;;;;;;;;5081592;28;20207;-71
2023/07/04 06:04:16;;;;;;;7.68;2.63;;;;;;;;;;5079399;28;20180;-73
2023/07/04 06:06:44;;;;;;;11.05;2.80;;;;;;;;;;5071649;28;20180;-74
2023/07/04 06:09:12;;;;;;;8.95;3.00;;;;;;;;;;5088506;28;20192;-72
2023/07/04 06:11:43;;;;;;;14.48;2.72;;;;;;;;;;5083119;28;20211;-73
2023/07/04 06:14:09;;;;;;;10.82;2.92;;;;;;;;;;5085615;28;20321;-72
2023/07/04 06:16:35;;;;;;;8.55;2.92;;;;;;;;;;5090365;28;20191;-70
2023/07/04 06:19:01;;;;;;;9.50;3.38;;;;;;;;;;5088677;28;20195;-73
2023/07/04 06:21:27;;;;;;;15.00;3.53;;;;;;;;;;5082928;28;20558;-72
2023/07/04 06:23:55;;;;;;;10.38;2.75;;;;;;;;;;5080921;28;20193;-70
2023/07/04 06:26:21;;;;;;;13.77;3.40;;;;;;;;;;5090144;28;20233;-73
2023/07/04 06:28:49;;;;;;;10.68;3.10;;;;;;;;;;5086533;28;20754;-69
2023/07/04 06:31:15;;;;;;;15.93;3.22;;;;;;;;;;5077816;28;20224;-74
2023/07/04 06:33:41;;;;;;;14.10;3.30;;;;;;;;;;5077755;28;20184;-72
2023/07/04 06:36:08;;;;;;;13.23;3.47;;;;;;;;;;5077348;28;20189;-69
2023/07/04 06:38:34;;;;;;;11.70;3.22;;;;;;;;;;5073458;28;20192;-72
2023/07/04 06:41:01;;;;;;;13.55;3.10;;;;;;;;;;5068720;28;20229;-73
2023/07/04 06:43:29;;;;;;;12.20;3.47;;;;;;;;;;5077980;28;20189;-71
2023/07/04 06:45:55;;;;;;;15.65;2.95;;;;;;;;;;5081928;28;20868;-73
2023/07/04 06:48:21;;;;;;;12.75;2.90;;;;;;;;;;5081971;28;20185;-73
2023/07/04 06:51:01;;;;;;;9.93;3.05;;;;;;;;;;5069701;28;20209;-70
2023/07/04 06:53:28;;;;;;;15.50;4.18;;;;;;;;;;5076077;28;20199;-70
2023/07/04 06:56:02;;;;;;;14.88;3.25;;;;;;;;;;5078172;28;20257;-69
2023/07/04 06:58:28;;;;;;;16.48;3.75;;;;;;;;;;5078989;28;20199;-70
2023/07/04 07:00:56;;;;;;;16.17;3.72;;;;;;;;;;5089201;28;20208;-74
2023/07/04 07:03:22;;;;;;;12.05;3.22;;;;;;;;;;5087879;28;20193;-69
2023/07/04 07:05:47;;;;;;;14.55;3.10;;;;;;;;;;5074600;28;20184;-72
2023/07/04 07:08:16;;;;;;;14.02;3.85;;;;;;;;;;5072979;28;20197;-73
2023/07/04 07:10:50;;;;;;;12.82;3.55;;;;;;;;;;5075932;28;20581;-73
2023/07/04 07:13:16;;;;;;;15.95;3.88;;;;;;;;;;5078223;28;20208;-74
2023/07/04 07:15:41;;;;;;;11.60;3.42;;;;;;;;;;5076006;28;20208;-70
2023/07/04 07:18:07;;;;;;;11.35;3.08;;;;;;;;;;5077101;28;20181;-73
2023/07/04 07:20:32;;;;;;;12.27;3.13;;;;;;;;;;5078145;28;20197;-73
2023/07/04 07:22:57;;;;;;;11.88;3.05;;;;;;;;;;5070036;28;20829;-74
2023/07/04 07:25:23;;;;;;;12.05;3.05;;;;;;;;;;5070067;28;20275;-73
2023/07/04 07:27:48;;;;;;;14.52;2.95;;;;;;;;;;5073747;28;20211;-75
2023/07/04 07:30:14;;;;;;;16.15;3.63;;;;;;;;;;5071476;28;20212;-74
2023/07/04 07:32:39;;;;;;;13.60;3.30;;;;;;;;;;5070607;28;20238;-68
2023/07/04 07:35:05;;;;;;;12.77;3.33;;;;;;;;;;5071366;28;20701;-73
2023/07/04 07:37:31;;;;;;;16.90;3.22;;;;;;;;;;5071678;28;20245;-74
2023/07/04 07:39:56;;;;;;;12.88;2.92;;;;;;;;;;5083072;28;20192;-74
2023/07/04 07:42:21;;;;;;;12.30;3.20;;;;;;;;;;5074650;28;20231;-70
2023/07/04 07:44:47;;;;;;;16.25;3.03;;;;;;;;;;5084377;28;20251;-74
2023/07/04 07:47:12;;;;;;;11.27;2.78;;;;;;;;;;5077944;28;20193;-71
2023/07/04 07:49:38;;;;;;;12.43;2.78;;;;;;;;;;5075092;28;20185;-74
2023/07/04 07:52:03;;;;;;;12.38;2.67;;;;;;;;;;5067697;28;20213;-75
2023/07/04 07:54:29;;;;;;;12.95;3.25;;;;;;;;;;5077737;28;20192;-73
2023/07/04 07:56:54;;;;;;;11.40;2.92;;;;;;;;;;5089127;28;20219;-74
2023/07/04 07:59:21;;;;;;;9.52;3.30;;;;;;;;;;5081479;28;20678;-69
2023/07/04 08:01:46;;;;;;;11.90;2.85;;;;;;;;;;5073997;28;20235;-74
2023/07/04 08:04:12;;;;;;;15.93;3.35;;;;;;;;;;5077708;28;20606;-73
2023/07/04 08:06:40;;;;;;;15.40;2.85;;;;;;;;;;5072489;28;20524;-72
2023/07/04 08:09:08;;;;;;;14.40;3.20;;;;;;;;;;5076176;28;20192;-74
2023/07/04 08:11:34;;;;;;;15.48;2.72;;;;;;;;;;5072752;28;21132;-75
2023/07/04 08:14:00;;;;;;;15.05;2.97;;;;;;;;;;5085951;28;20202;-74
2023/07/04 08:16:31;;;;;;;11.77;2.33;;;;;;;;;;5085115;28;20229;-76
2023/07/04 08:18:59;;;;;;;10.35;2.22;;;;;;;;;;5084500;28;20660;-71
2023/07/04 08:21:27;;;;;;;10.25;2.40;;;;;;;;;;5085440;28;20200;-70
2023/07/04 08:23:52;;;;;;;14.45;2.60;;;;;;;;;;5083752;28;20275;-73
2023/07/04 08:26:20;;;;;;;13.45;3.03;;;;;;;;;;5081538;28;20279;-74
2023/07/04 08:28:45;;;;;;;17.15;3.70;;;;;;;;;;5083676;28;20223;-74
2023/07/04 08:31:11;;;;;;;12.88;3.80;;;;;;;;;;5081485;28;20243;-74
2023/07/04 08:33:37;;;;;;;12.57;3.17;;;;;;;;;;5081353;28;20199;-70
2023/07/04 08:36:08;;;;;;;12.80;3.22;;;;;;;;;;5085788;28;20187;-74
2023/07/04 08:38:33;;;;;;;16.58;4.28;;;;;;;;;;5085088;28;20648;-75
2023/07/04 08:41:00;;;;;;;12.18;2.70;;;;;;;;;;5081924;28;20223;-75
2023/07/04 08:43:43;;;;;;;10.52;2.50;;;;;;;;;;5083611;28;20650;-75
2023/07/04 08:46:12;;;;;;;8.68;2.78;;;;;;;;;;5081678;28;20195;-71
2023/07/04 08:48:39;;;;;;;15.82;2.60;;;;;;;;;;5085506;28;20202;-68
2023/07/04 08:51:05;;;;;;;10.70;2.97;;;;;;;;;;5085048;28;20199;-68
2023/07/04 08:53:31;;;;;;;13.10;3.03;;;;;;;;;;5077592;28;20196;-67
2023/07/04 08:56:06;;;;;;;11.68;2.90;;;;;;;;;;5084809;28;20667;-68
2023/07/04 08:58:55;;;;;;;9.60;2.50;;;;;;;;;;5085262;28;20187;-68
2023/07/04 09:02:05;;;;;;;11.63;2.40;;;;;;;;;;5076828;28;20195;-71
2023/07/04 09:04:36;;;;;;;15.18;2.45;;;;;;;;;;5075561;28;20216;-69
2023/07/04 09:07:10;;;;;;;11.48;2.97;;;;;;;;;;5085612;28;20274;-68
2023/07/04 09:09:46;;;;;;;8.13;2.35;;;;;;;;;;5086024;28;20188;-66
2023/07/04 09:12:12;;;;;;;12.85;3.13;;;;;;;;;;5083364;28;20200;-66
2023/07/04 09:14:48;;;;;;;12.30;3.40;;;;;;;;;;5089734;28;20202;-67
2023/07/04 09:17:35;;;;;;;12.38;3.47;;;;;;;;;;5088004;28;20192;-68
2023/07/04 09:20:04;;;;;;;13.93;3.38;;;;;;;;;;5099689;28;20187;-68
2023/07/04 09:22:30;;;;;;;14.55;3.80;;;;;;;;;;5089164;28;20301;-69
2023/07/04 09:24:55;;;;;;;11.93;3.70;;;;;;;;;;5087321;28;20274;-67
2023/07/04 09:27:21;;;;;;;11.38;3.45;;;;;;;;;;5086463;28;20205;-68
2023/07/04 09:29:47;;;;;;;11.23;3.25;;;;;;;;;;5089449;28;20498;-69
2023/07/04 09:32:12;;;;;;;11.35;3.05;;;;;;;;;;5084521;28;20209;-68
2023/07/04 09:34:51;;;;;;;10.10;2.80;;;;;;;;;;5076202;28;20191;-66
2023/07/04 09:37:23;;;;;;;12.70;3.17;;;;;;;;;;5074993;28;20602;-68
2023/07/04 09:39:54;;;;;;;9.38;2.97;;;;;;;;;;5074613;28;20659;-69
2023/07/04 09:42:22;;;;;;;9.15;2.88;;;;;;;;;;5075961;28;20555;-66
2023/07/04 09:44:51;;;;;;;13.23;3.25;;;;;;;;;;5084013;28;20196;-69
2023/07/04 09:47:24;;;;;;;12.57;3.47;;;;;;;;;;5084716;28;20518;-69
2023/07/04 09:50:08;;;;;;;9.45;3.05;;;;;;;;;;5082996;28;20525;-68
2023/07/04 09:52:33;;;;;;;10.60;3.20;;;;;;;;;;5087028;28;20208;-67
2023/07/04 09:55:16;;;;;;;10.88;3.13;;;;;;;;;;5077204;28;20234;-66
2023/07/04 09:57:43;;;;;;;11.98;3.20;;;;;;;;;;5083243;28;20260;-67
2023/07/04 10:00:19;;;;;;;12.63;2.83;;;;;;;;;;5083556;28;20196;-69
2023/07/04 10:02:46;;;;;;;10.25;2.75;;;;;;;;;;5071458;28;20181;-67
2023/07/04 10:05:27;;;;;;;10.05;2.75;;;;;;;;;;5072869;28;20298;-67
2023/07/04 10:08:05;;;;;;;12.52;3.78;;;;;;;;;;5078856;28;20188;-69
2023/07/04 10:10:50;;;;;;;11.70;3.33;;;;;;;;;;5075077;28;20184;-68
2023/07/04 10:13:17;;;;;;;13.68;2.72;;;;;;;;;;5078005;28;20191;-69
2023/07/04 10:15:45;;;;;;;10.43;2.60;;;;;;;;;;5078583;28;20710;-67
2023/07/04 10:18:28;;;;;;;12.20;3.17;;;;;;;;;;5071411;28;20268;-69
2023/07/04 10:20:57;;;;;;;10.20;2.70;;;;;;;;;;5072143;28;20241;-69
2023/07/04 10:23:23;;;;;;;12.00;3.10;;;;;;;;;;5076147;28;20197;-68
2023/07/04 10:25:50;;;;;;;10.55;3.05;;;;;;;;;;5071726;28;20193;-67
2023/07/04 10:28:19;;;;;;;11.18;2.83;;;;;;;;;;5071256;28;20664;-68
2023/07/04 10:30:51;;;;;;;11.95;3.15;;;;;;;;;;5081316;28;20235;-69
2023/07/04 10:33:36;;;;;;;11.35;2.60;;;;;;;;;;5071181;28;20181;-67
2023/07/04 10:36:02;;;;;;;10.05;2.70;;;;;;;;;;5089199;28;20195;-68
2023/07/04 10:38:51;;;;;;;15.70;3.08;;;;;;;;;;5071306;28;20185;-69
2023/07/04 10:41:23;;;;;;;12.65;2.95;;;;;;;;;;5079488;28;20216;-69
2023/07/04 10:43:54;;;;;;;12.63;2.70;;;;;;;;;;5086266;28;20176;-67
2023/07/04 10:46:28;;;;;;;13.43;3.47;;;;;;;;;;5082461;28;20195;-69
2023/07/04 10:49:01;;;;;;;12.32;3.67;;;;;;;;;;5079302;28;20187;-69
2023/07/04 10:51:32;;;;;;;12.20;3.25;;;;;;;;;;5073778;28;20219;-69
2023/07/04 10:53:58;;;;;;;9.95;3.22;;;;;;;;;;5068930;28;20258;-68
2023/07/04 10:56:34;;;;;;;14.07;3.60;;;;;;;;;;5076377;28;20585;-68
2023/07/04 10:59:11;;;;;;;11.35;3.50;;;;;;;;;;5083873;28;20180;-68
2023/07/04 11:01:40;;;;;;;12.18;3.47;;;;;;;;;;5085401;28;20706;-68
2023/07/04 11:04:18;;;;;;;14.95;3.90;;;;;;;;;;5073438;28;20661;-68
2023/07/04 11:06:52;;;;;;;13.27;3.67;;;;;;;;;;5077422;28;20212;-69
2023/07/04 11:09:19;;;;;;;12.48;3.33;;;;;;;;;;5081172;28;20643;-69
2023/07/04 11:11:50;;;;;;;15.48;3.83;;;;;;;;;;5084390;28;20576;-72
2023/07/04 11:14:27;;;;;;;13.93;4.03;;;;;;;;;;5084219;28;20208;-71
2023/07/04 11:16:54;;;;;;;17.10;3.80;;;;;;;;;;5074885;28;20193;-71
2023/07/04 11:19:22;;;;;;;12.27;3.22;;;;;;;;;;5073177;28;20227;-71
2023/07/04 11:22:09;;;;;;;12.15;3.50;;;;;;;;;;5076290;28;20201;-71
2023/07/04 11:24:43;;;;;;;12.48;4.03;;;;;;;;;;5081590;28;20196;-70
2023/07/04 11:27:18;;;;;;;15.35;3.40;;;;;;;;;;5084194;28;20270;-70
2023/07/04 11:29:48;;;;;;;10.68;3.78;;;;;;;;;;5067663;28;20687;-69
2023/07/04 11:32:37;;;;;;;12.93;3.13;;;;;;;;;;5081171;28;20259;-70
2023/07/04 11:35:06;;;;;;;15.40;4.07;;;;;;;;;;5070410;28;20293;-69
2023/07/04 11:37:40;;;;;;;15.60;4.53;;;;;;;;;;5086902;28;20216;-69
2023/07/04 11:40:28;;;;;;;14.38;3.85;;;;;;;;;;5089473;28;20202;-69
2023/07/04 11:43:00;;;;;;;11.23;4.10;;;;;;;;;;5056992;28;20866;-69
2023/07/04 11:45:29;;;;;;;14.77;4.28;;;;;;;;;;5058753;28;20181;-70
2023/07/04 11:48:06;;;;;;;17.63;4.22;;;;;;;;;;5063943;28;20192;-70
2023/07/04 11:50:43;;;;;;;12.77;4.00;;;;;;;;;;5061469;28;20211;-71
2023/07/04 11:53:18;;;;;;;18.10;4.15;;;;;;;;;;5056610;28;20271;-70
2023/07/04 11:55:53;;;;;;;11.02;3.35;;;;;;;;;;5062317;28;20563;-70
2023/07/04 11:58:19;;;;;;;14.40;3.40;;;;;;;;;;5054233;28;20212;-70
2023/07/04 12:00:44;;;;;;;11.10;2.72;;;;;;;;;;5057242;28;20247;-70
2023/07/04 12:03:15;;;;;;;17.17;3.92;;;;;;;;;;5058591;28;20248;-69
2023/07/04 12:05:42;;;;;;;12.43;3.50;;;;;;;;;;5063660;28;20205;-70
2023/07/04 12:08:11;;;;;;;9.40;3.03;;;;;;;;;;5057352;28;20197;-71
2023/07/04 12:10:36;;;;;;;9.57;2.90;;;;;;;;;;5052008;28;20379;-71
2023/07/04 12:13:06;;;;;;;13.90;2.90;;;;;;;;;;5062398;28;20192;-71
2023/07/04 12:15:34;;;;;;;9.80;3.08;;;;;;;;;;5056651;28;20200;-70
2023/07/04 12:18:01;;;;;;;14.18;2.90;;;;;;;;;;5061906;28;20550;-70
2023/07/04 12:20:28;;;;;;;10.52;3.22;;;;;;;;;;5054632;28;20200;-70
2023/07/04 12:23:00;;;;;;;13.40;3.65;;;;;;;;;;5061670;28;20628;-69
2023/07/04 12:25:40;;;;;;;8.13;2.75;;;;;;;;;;5051329;28;20292;-70
2023/07/04 12:28:09;;;;;;;16.92;3.90;;;;;;;;;;5050730;28;20185;-70
2023/07/04 12:30:38;;;;;;;9.82;3.20;;;;;;;;;;5049834;28;20177;-69
2023/07/04 12:33:04;;;;;;;10.73;2.72;;;;;;;;;;5063814;28;20201;-69
2023/07/04 12:35:31;;;;;;;15.50;3.80;;;;;;;;;;5058679;28;20553;-70
2023/07/04 12:37:58;;;;;;;14.85;3.33;;;;;;;;;;5059893;28;20189;-69
2023/07/04 12:40:28;;;;;;;11.77;3.05;;;;;;;;;;5064962;28;20291;-70
2023/07/04 12:42:55;;;;;;;9.55;3.17;;;;;;;;;;5055655;28;20194;-70
2023/07/04 12:45:25;;;;;;;11.90;3.47;;;;;;;;;;5058571;28;20270;-70
2023/07/04 12:47:54;;;;;;;12.68;3.05;;;;;;;;;;5063524;28;20806;-70
2023/07/04 12:50:20;;;;;;;9.10;3.08;;;;;;;;;;5060385;28;20556;-69
2023/07/04 12:52:48;;;;;;;13.02;3.33;;;;;;;;;;5054876;28;20267;-70
2023/07/04 12:55:24;;;;;;;12.18;3.05;;;;;;;;;;5061028;28;20696;-70
2023/07/04 12:57:51;;;;;;;13.15;2.88;;;;;;;;;;5065721;28;20189;-67
2023/07/04 13:00:26;;;;;;;13.80;3.30;;;;;;;;;;5054991;28;20272;-67
2023/07/04 13:02:53;;;;;;;11.55;3.33;;;;;;;;;;5058619;28;20656;-68
2023/07/04 13:05:18;;;;;;;9.63;3.25;;;;;;;;;;5060865;28;20215;-68
2023/07/04 13:07:47;;;;;;;11.38;3.38;;;;;;;;;;5062530;28;20193;-68
2023/07/04 13:10:20;;;;;;;11.57;3.20;;;;;;;;;;5058164;28;20176;-68
2023/07/04 13:12:46;;;;;;;10.40;3.20;;;;;;;;;;5055467;28;20696;-69
2023/07/04 13:15:43;;;;;;;9.90;2.92;;;;;;;;;;5058565;28;20204;-69
2023/07/04 13:18:08;;;;;;;6.80;2.88;;;;;;;;;;5051130;28;20186;-69
2023/07/04 13:23:57;;;;;;;10.25;3.47;;;;;;;;;;5046702;28;20226;-68
2023/07/04 13:26:26;;;;;;;8.77;3.10;;;;;;;;;;5053184;28;20184;-68
2023/07/04 13:28:55;;;;;;;9.50;2.60;;;;;;;;;;5052516;28;20693;-67
2023/07/04 13:31:25;;;;;;;11.52;2.90;;;;;;;;;;5055363;28;20210;-67
2023/07/04 13:33:53;;;;;;;10.18;3.20;;;;;;;;;;5053846;28;20417;-65
2023/07/04 13:36:34;;;;;;;10.95;2.80;;;;;;;;;;5053571;28;20853;-69
2023/07/04 13:39:00;;;;;;;13.70;2.92;;;;;;;;;;5061830;28;20193;-68
2023/07/04 13:41:25;;;;;;;9.30;3.10;;;;;;;;;;5063587;28;20294;-68
2023/07/04 13:43:51;;;;;;;9.32;2.92;;;;;;;;;;5080546;28;20254;-68
2023/07/04 13:46:18;;;;;;;8.88;2.60;;;;;;;;;;5074662;28;20700;-66
2023/07/04 13:48:44;;;;;;;10.73;3.30;;;;;;;;;;5078095;28;20834;-68
2023/07/04 13:51:10;;;;;;;8.75;2.53;;;;;;;;;;5080636;28;20247;-67
2023/07/04 13:53:36;;;;;;;7.03;2.55;;;;;;;;;;5084535;28;20215;-68
2023/07/04 13:56:01;;;;;;;7.80;2.85;;;;;;;;;;5074107;28;20198;-69
2023/07/04 13:58:27;;;;;;;9.18;2.70;;;;;;;;;;5085382;28;20196;-66
2023/07/04 14:00:53;;;;;;;7.22;2.53;;;;;;;;;;5081353;28;20287;-68
2023/07/04 14:03:19;;;;;;;11.60;2.70;;;;;;;;;;5077204;28;20687;-69
2023/07/04 14:05:45;;;;;;;11.80;2.50;;;;;;;;;;5079826;28;20204;-69
2023/07/04 14:08:10;;;;;;;8.48;2.67;;;;;;;;;;5084605;28;20734;-68
2023/07/04 14:10:36;;;;;;;11.48;2.50;;;;;;;;;;5083914;28;20196;-69
2023/07/04 14:13:01;;;;;;;9.05;2.50;;;;;;;;;;5085741;28;20601;-69
2023/07/04 14:15:27;;;;;;;9.48;3.97;;;;;;;;;;5085103;28;20193;-68
2023/07/04 14:17:52;;;;;;;7.93;2.60;;;;;;;;;;5086514;28;20643;-66
2023/07/04 14:20:18;;;;;;;7.25;2.17;;;;;;;;;;5081196;28;20184;-67
2023/07/04 14:22:44;;;;;;;7.97;2.30;;;;;;;;;;5085855;28;20559;-68
2023/07/04 14:25:09;;;;;;;9.75;2.65;;;;;;;;;;5086964;28;20181;-67
2023/07/04 14:27:36;;;;;;;6.05;2.05;;;;;;;;;;5085819;28;20192;-68
2023/07/04 14:30:06;;;;;;;12.80;2.42;;;;;;;;;;5075554;28;20196;-66
2023/07/04 14:32:35;;;;;;;6.97;2.28;;;;;;;;;;5077012;28;20319;-66
2023/07/04 14:35:01;;;;;;;7.40;2.15;;;;;;;;;;5076079;28;20881;-69
2023/07/04 14:37:26;;;;;;;6.80;2.40;;;;;;;;;;5076665;28;20181;-66
2023/07/04 14:39:53;;;;;;;5.90;2.20;;;;;;;;;;5081399;28;20184;-68
2023/07/04 14:42:19;;;;;;;8.32;2.20;;;;;;;;;;5081335;28;20231;-69
2023/07/04 14:44:46;;;;;;;6.63;1.85;;;;;;;;;;5078821;28;20223;-67
2023/07/04 14:47:11;;;;;;;8.52;1.92;;;;;;;;;;5077723;28;20192;-67